sensor_id;sensor_type;location;lat;lon;timestamp;P1;durP1;ratioP1;P2;durP2;ratioP2
55732;SDS011;41637;52.364;9.910;2023-04-03T00:00:48;5.50;;;1.30;;
55732;SDS011;41637;52.364;9.910;2023-04-03T00:03:16;8.00;;;1.40;;
55732;SDS011;41637;52.364;9.910;2023-04-03T00:05:44;6.30;;;1.60;;
55732;SDS011;41637;52.364;9.910;2023-04-03T00:08:12;7.60;;;1.90;;
55732;SDS011;41637;52.364;9.910;2023-04-03T00:10:38;6.20;;;1.80;;
55732;SDS011;41637;52.364;9.910;2023-04-03T00:13:05;4.50;;;2.20;;
55732;SDS011;41637;52.364;9.910;2023-04-03T00:15:34;4.60;;;1.30;;
55732;SDS011;41637;52.364;9.910;2023-04-03T00:18:02;4.60;;;1.60;;
55732;SDS011;41637;52.364;9.910;2023-04-03T00:20:29;3.60;;;1.50;;
55732;SDS011;41637;52.364;9.910;2023-04-03T00:22:56;5.00;;;1.50;;
55732;SDS011;41637;52.364;9.910;2023-04-03T00:25:22;7.20;;;1.50;;
55732;SDS011;41637;52.364;9.910;2023-04-03T00:27:49;6.70;;;1.60;;
55732;SDS011;41637;52.364;9.910;2023-04-03T00:30:17;6.10;;;1.70;;
55732;SDS011;41637;52.364;9.910;2023-04-03T00:32:45;5.80;;;1.60;;
55732;SDS011;41637;52.364;9.910;2023-04-03T00:35:14;6.60;;;1.80;;
55732;SDS011;41637;52.364;9.910;2023-04-03T00:37:44;6.60;;;1.70;;
55732;SDS011;41637;52.364;9.910;2023-04-03T00:40:12;5.60;;;1.90;;
55732;SDS011;41637;52.364;9.910;2023-04-03T00:42:41;5.40;;;1.60;;
55732;SDS011;41637;52.364;9.910;2023-04-03T00:47:50;5.20;;;1.80;;
55732;SDS011;41637;52.364;9.910;2023-04-03T00:50:18;6.20;;;1.90;;
55732;SDS011;41637;52.364;9.910;2023-04-03T00:52:44;7.20;;;1.90;;
55732;SDS011;41637;52.364;9.910;2023-04-03T00:55:13;6.40;;;2.40;;
55732;SDS011;41637;52.364;9.910;2023-04-03T00:57:49;5.60;;;2.30;;
55732;SDS011;41637;52.364;9.910;2023-04-03T01:00:17;5.50;;;1.90;;
55732;SDS011;41637;52.364;9.910;2023-04-03T01:02:46;5.80;;;1.90;;
55732;SDS011;41637;52.364;9.910;2023-04-03T01:05:13;6.30;;;1.90;;
55732;SDS011;41637;52.364;9.910;2023-04-03T01:07:42;6.70;;;2.10;;
55732;SDS011;41637;52.364;9.910;2023-04-03T01:10:10;5.70;;;1.70;;
55732;SDS011;41637;52.364;9.910;2023-04-03T01:12:41;5.90;;;1.60;;
55732;SDS011;41637;52.364;9.910;2023-04-03T01:15:14;5.20;;;1.90;;
55732;SDS011;41637;52.364;9.910;2023-04-03T01:17:53;6.40;;;1.70;;
55732;SDS011;41637;52.364;9.910;2023-04-03T01:28:09;6.10;;;1.60;;
55732;SDS011;41637;52.364;9.910;2023-04-03T01:31:22;4.40;;;1.50;;
55732;SDS011;41637;52.364;9.910;2023-04-03T01:33:48;8.50;;;1.70;;
55732;SDS011;41637;52.364;9.910;2023-04-03T01:36:19;6.10;;;1.70;;
55732;SDS011;41637;52.364;9.910;2023-04-03T01:38:49;6.10;;;1.70;;
55732;SDS011;41637;52.364;9.910;2023-04-03T01:41:17;8.20;;;1.60;;
55732;SDS011;41637;52.364;9.910;2023-04-03T01:43:44;6.70;;;1.80;;
55732;SDS011;41637;52.364;9.910;2023-04-03T01:46:10;6.80;;;1.90;;
55732;SDS011;41637;52.364;9.910;2023-04-03T01:48:37;5.80;;;1.50;;
55732;SDS011;41637;52.364;9.910;2023-04-03T01:51:04;4.70;;;1.40;;
55732;SDS011;41637;52.364;9.910;2023-04-03T01:53:31;5.90;;;1.70;;
55732;SDS011;41637;52.364;9.910;2023-04-03T01:55:57;3.50;;;1.50;;
55732;SDS011;41637;52.364;9.910;2023-04-03T01:58:24;5.60;;;1.70;;
55732;SDS011;41637;52.364;9.910;2023-04-03T02:00:51;5.10;;;1.60;;
55732;SDS011;41637;52.364;9.910;2023-04-03T02:03:18;4.80;;;1.50;;
55732;SDS011;41637;52.364;9.910;2023-04-03T02:05:45;6.60;;;1.60;;
55732;SDS011;41637;52.364;9.910;2023-04-03T02:08:11;4.70;;;1.80;;
55732;SDS011;41637;52.364;9.910;2023-04-03T02:10:39;7.00;;;1.70;;
55732;SDS011;41637;52.364;9.910;2023-04-03T02:13:06;6.70;;;1.60;;
55732;SDS011;41637;52.364;9.910;2023-04-03T02:15:42;7.60;;;2.10;;
55732;SDS011;41637;52.364;9.910;2023-04-03T02:18:09;9.40;;;2.00;;
55732;SDS011;41637;52.364;9.910;2023-04-03T02:20:36;6.10;;;2.00;;
55732;SDS011;41637;52.364;9.910;2023-04-03T02:23:03;5.90;;;1.90;;
55732;SDS011;41637;52.364;9.910;2023-04-03T02:25:30;7.70;;;1.70;;
55732;SDS011;41637;52.364;9.910;2023-04-03T02:27:58;6.40;;;1.50;;
55732;SDS011;41637;52.364;9.910;2023-04-03T02:30:24;6.10;;;1.60;;
55732;SDS011;41637;52.364;9.910;2023-04-03T02:32:52;6.50;;;1.60;;
55732;SDS011;41637;52.364;9.910;2023-04-03T02:35:19;6.70;;;1.60;;
55732;SDS011;41637;52.364;9.910;2023-04-03T02:37:46;6.40;;;1.60;;
55732;SDS011;41637;52.364;9.910;2023-04-03T02:40:13;7.40;;;1.50;;
55732;SDS011;41637;52.364;9.910;2023-04-03T02:42:40;5.50;;;1.30;;
55732;SDS011;41637;52.364;9.910;2023-04-03T02:45:09;6.00;;;1.60;;
55732;SDS011;41637;52.364;9.910;2023-04-03T02:47:35;7.70;;;1.60;;
55732;SDS011;41637;52.364;9.910;2023-04-03T02:50:03;6.80;;;1.40;;
55732;SDS011;41637;52.364;9.910;2023-04-03T02:52:30;7.20;;;1.40;;
55732;SDS011;41637;52.364;9.910;2023-04-03T02:54:58;5.70;;;1.60;;
55732;SDS011;41637;52.364;9.910;2023-04-03T02:57:24;5.30;;;1.40;;
55732;SDS011;41637;52.364;9.910;2023-04-03T02:59:51;5.80;;;1.90;;
55732;SDS011;41637;52.364;9.910;2023-04-03T03:02:18;7.90;;;1.70;;
55732;SDS011;41637;52.364;9.910;2023-04-03T03:04:44;5.50;;;1.80;;
55732;SDS011;41637;52.364;9.910;2023-04-03T03:07:11;6.20;;;1.70;;
55732;SDS011;41637;52.364;9.910;2023-04-03T03:09:37;8.70;;;1.90;;
55732;SDS011;41637;52.364;9.910;2023-04-03T03:12:04;6.00;;;1.70;;
55732;SDS011;41637;52.364;9.910;2023-04-03T03:14:37;4.80;;;1.60;;
55732;SDS011;41637;52.364;9.910;2023-04-03T03:17:03;5.50;;;1.50;;
55732;SDS011;41637;52.364;9.910;2023-04-03T03:19:33;8.40;;;2.30;;
55732;SDS011;41637;52.364;9.910;2023-04-03T03:21:59;7.10;;;1.80;;
55732;SDS011;41637;52.364;9.910;2023-04-03T03:24:26;5.70;;;1.50;;
55732;SDS011;41637;52.364;9.910;2023-04-03T03:26:53;5.70;;;1.50;;
55732;SDS011;41637;52.364;9.910;2023-04-03T03:29:20;6.80;;;1.60;;
55732;SDS011;41637;52.364;9.910;2023-04-03T03:31:46;6.80;;;1.60;;
55732;SDS011;41637;52.364;9.910;2023-04-03T03:34:13;5.70;;;1.80;;
55732;SDS011;41637;52.364;9.910;2023-04-03T03:36:40;6.00;;;1.50;;
55732;SDS011;41637;52.364;9.910;2023-04-03T03:39:07;7.20;;;2.30;;
55732;SDS011;41637;52.364;9.910;2023-04-03T03:41:34;6.10;;;1.50;;
55732;SDS011;41637;52.364;9.910;2023-04-03T03:44:00;6.50;;;1.60;;
55732;SDS011;41637;52.364;9.910;2023-04-03T03:46:27;5.40;;;1.80;;
55732;SDS011;41637;52.364;9.910;2023-04-03T03:49:03;8.40;;;1.80;;
55732;SDS011;41637;52.364;9.910;2023-04-03T03:51:29;6.90;;;1.60;;
55732;SDS011;41637;52.364;9.910;2023-04-03T03:53:56;6.60;;;1.60;;
55732;SDS011;41637;52.364;9.910;2023-04-03T03:56:22;5.80;;;1.70;;
55732;SDS011;41637;52.364;9.910;2023-04-03T03:58:49;5.60;;;1.30;;
55732;SDS011;41637;52.364;9.910;2023-04-03T04:01:16;5.70;;;1.60;;
55732;SDS011;41637;52.364;9.910;2023-04-03T04:03:43;5.10;;;1.50;;
55732;SDS011;41637;52.364;9.910;2023-04-03T04:06:10;7.30;;;1.80;;
55732;SDS011;41637;52.364;9.910;2023-04-03T04:08:36;7.70;;;2.20;;
55732;SDS011;41637;52.364;9.910;2023-04-03T04:11:03;6.90;;;2.40;;
55732;SDS011;41637;52.364;9.910;2023-04-03T04:13:30;5.40;;;1.60;;
55732;SDS011;41637;52.364;9.910;2023-04-03T04:15:56;8.10;;;1.60;;
55732;SDS011;41637;52.364;9.910;2023-04-03T04:18:23;6.70;;;1.70;;
55732;SDS011;41637;52.364;9.910;2023-04-03T04:20:50;5.40;;;1.70;;
55732;SDS011;41637;52.364;9.910;2023-04-03T04:23:17;5.60;;;1.50;;
55732;SDS011;41637;52.364;9.910;2023-04-03T04:25:45;5.50;;;1.40;;
55732;SDS011;41637;52.364;9.910;2023-04-03T04:28:13;6.50;;;1.70;;
55732;SDS011;41637;52.364;9.910;2023-04-03T04:30:40;7.10;;;1.70;;
55732;SDS011;41637;52.364;9.910;2023-04-03T04:33:07;6.90;;;1.90;;
55732;SDS011;41637;52.364;9.910;2023-04-03T04:35:34;6.30;;;1.60;;
55732;SDS011;41637;52.364;9.910;2023-04-03T04:38:01;5.60;;;1.80;;
55732;SDS011;41637;52.364;9.910;2023-04-03T04:40:28;7.40;;;2.10;;
55732;SDS011;41637;52.364;9.910;2023-04-03T04:42:55;7.30;;;1.60;;
55732;SDS011;41637;52.364;9.910;2023-04-03T04:45:22;5.30;;;1.70;;
55732;SDS011;41637;52.364;9.910;2023-04-03T04:47:49;7.20;;;2.00;;
55732;SDS011;41637;52.364;9.910;2023-04-03T04:50:18;7.80;;;1.70;;
55732;SDS011;41637;52.364;9.910;2023-04-03T04:52:45;5.50;;;1.50;;
55732;SDS011;41637;52.364;9.910;2023-04-03T04:55:11;7.10;;;1.60;;
55732;SDS011;41637;52.364;9.910;2023-04-03T04:57:38;9.10;;;1.80;;
55732;SDS011;41637;52.364;9.910;2023-04-03T05:00:05;7.30;;;1.70;;
55732;SDS011;41637;52.364;9.910;2023-04-03T05:02:32;8.70;;;2.00;;
55732;SDS011;41637;52.364;9.910;2023-04-03T05:04:59;5.00;;;1.70;;
55732;SDS011;41637;52.364;9.910;2023-04-03T05:07:29;6.20;;;1.60;;
55732;SDS011;41637;52.364;9.910;2023-04-03T05:09:56;7.80;;;2.20;;
55732;SDS011;41637;52.364;9.910;2023-04-03T05:12:22;10.20;;;1.70;;
55732;SDS011;41637;52.364;9.910;2023-04-03T05:14:49;6.20;;;1.70;;
55732;SDS011;41637;52.364;9.910;2023-04-03T05:17:15;6.20;;;2.00;;
55732;SDS011;41637;52.364;9.910;2023-04-03T05:19:42;5.40;;;1.40;;
55732;SDS011;41637;52.364;9.910;2023-04-03T05:22:09;8.20;;;1.80;;
55732;SDS011;41637;52.364;9.910;2023-04-03T05:24:36;7.70;;;2.10;;
55732;SDS011;41637;52.364;9.910;2023-04-03T05:27:03;5.80;;;1.60;;
55732;SDS011;41637;52.364;9.910;2023-04-03T05:29:30;7.60;;;2.20;;
55732;SDS011;41637;52.364;9.910;2023-04-03T05:31:56;10.20;;;2.00;;
55732;SDS011;41637;52.364;9.910;2023-04-03T05:34:23;7.20;;;1.80;;
55732;SDS011;41637;52.364;9.910;2023-04-03T05:36:50;7.90;;;1.70;;
55732;SDS011;41637;52.364;9.910;2023-04-03T05:39:17;6.10;;;1.60;;
55732;SDS011;41637;52.364;9.910;2023-04-03T05:41:44;7.30;;;2.00;;
55732;SDS011;41637;52.364;9.910;2023-04-03T05:44:10;7.60;;;1.80;;
55732;SDS011;41637;52.364;9.910;2023-04-03T05:46:37;7.80;;;2.10;;
55732;SDS011;41637;52.364;9.910;2023-04-03T05:49:04;8.40;;;2.10;;
55732;SDS011;41637;52.364;9.910;2023-04-03T05:51:33;6.40;;;1.90;;
55732;SDS011;41637;52.364;9.910;2023-04-03T05:54:16;5.10;;;1.80;;
55732;SDS011;41637;52.364;9.910;2023-04-03T05:56:46;7.20;;;1.80;;
55732;SDS011;41637;52.364;9.910;2023-04-03T05:59:13;5.80;;;2.10;;
55732;SDS011;41637;52.364;9.910;2023-04-03T06:01:42;9.90;;;2.30;;
55732;SDS011;41637;52.364;9.910;2023-04-03T06:04:09;6.40;;;2.00;;
55732;SDS011;41637;52.364;9.910;2023-04-03T06:06:43;9.60;;;2.20;;
55732;SDS011;41637;52.364;9.910;2023-04-03T06:09:11;6.80;;;1.70;;
55732;SDS011;41637;52.364;9.910;2023-04-03T06:11:38;6.60;;;1.80;;
55732;SDS011;41637;52.364;9.910;2023-04-03T06:14:05;5.00;;;1.60;;
55732;SDS011;41637;52.364;9.910;2023-04-03T06:16:31;5.10;;;1.80;;
55732;SDS011;41637;52.364;9.910;2023-04-03T06:18:58;5.40;;;1.70;;
55732;SDS011;41637;52.364;9.910;2023-04-03T06:21:25;6.60;;;2.10;;
55732;SDS011;41637;52.364;9.910;2023-04-03T06:23:52;6.10;;;1.80;;
55732;SDS011;41637;52.364;9.910;2023-04-03T06:26:19;6.20;;;1.80;;
55732;SDS011;41637;52.364;9.910;2023-04-03T06:28:46;7.90;;;1.70;;
55732;SDS011;41637;52.364;9.910;2023-04-03T06:31:13;6.50;;;1.60;;
55732;SDS011;41637;52.364;9.910;2023-04-03T06:33:40;4.50;;;1.60;;
55732;SDS011;41637;52.364;9.910;2023-04-03T06:36:07;4.90;;;1.90;;
55732;SDS011;41637;52.364;9.910;2023-04-03T06:38:34;6.00;;;2.00;;
55732;SDS011;41637;52.364;9.910;2023-04-03T06:41:00;7.80;;;1.70;;
55732;SDS011;41637;52.364;9.910;2023-04-03T06:43:27;6.30;;;1.50;;
55732;SDS011;41637;52.364;9.910;2023-04-03T06:45:54;6.70;;;1.70;;
55732;SDS011;41637;52.364;9.910;2023-04-03T06:48:21;4.80;;;1.40;;
55732;SDS011;41637;52.364;9.910;2023-04-03T06:50:47;4.90;;;1.50;;
55732;SDS011;41637;52.364;9.910;2023-04-03T06:53:14;7.20;;;1.70;;
55732;SDS011;41637;52.364;9.910;2023-04-03T06:55:41;6.10;;;1.80;;
55732;SDS011;41637;52.364;9.910;2023-04-03T06:58:07;4.00;;;1.20;;
55732;SDS011;41637;52.364;9.910;2023-04-03T07:00:34;4.10;;;1.10;;
55732;SDS011;41637;52.364;9.910;2023-04-03T07:03:00;6.90;;;1.30;;
55732;SDS011;41637;52.364;9.910;2023-04-03T07:05:36;4.10;;;1.40;;
55732;SDS011;41637;52.364;9.910;2023-04-03T07:08:03;4.50;;;1.30;;
55732;SDS011;41637;52.364;9.910;2023-04-03T07:10:30;3.30;;;1.30;;
55732;SDS011;41637;52.364;9.910;2023-04-03T07:12:56;5.30;;;1.50;;
55732;SDS011;41637;52.364;9.910;2023-04-03T07:15:23;4.90;;;1.30;;
55732;SDS011;41637;52.364;9.910;2023-04-03T07:17:50;5.90;;;1.30;;
55732;SDS011;41637;52.364;9.910;2023-04-03T07:20:17;6.40;;;1.40;;
55732;SDS011;41637;52.364;9.910;2023-04-03T07:22:46;3.50;;;1.20;;
55732;SDS011;41637;52.364;9.910;2023-04-03T07:25:13;5.10;;;1.30;;
55732;SDS011;41637;52.364;9.910;2023-04-03T07:27:39;5.90;;;1.80;;
55732;SDS011;41637;52.364;9.910;2023-04-03T07:30:06;5.90;;;1.30;;
55732;SDS011;41637;52.364;9.910;2023-04-03T07:32:36;5.30;;;1.40;;
55732;SDS011;41637;52.364;9.910;2023-04-03T07:35:03;5.70;;;1.20;;
55732;SDS011;41637;52.364;9.910;2023-04-03T07:37:30;3.90;;;1.30;;
55732;SDS011;41637;52.364;9.910;2023-04-03T07:39:56;3.80;;;1.00;;
55732;SDS011;41637;52.364;9.910;2023-04-03T07:42:25;6.30;;;1.20;;
55732;SDS011;41637;52.364;9.910;2023-04-03T07:44:53;4.90;;;1.20;;
55732;SDS011;41637;52.364;9.910;2023-04-03T07:47:20;3.60;;;1.20;;
55732;SDS011;41637;52.364;9.910;2023-04-03T07:49:48;3.00;;;0.90;;
55732;SDS011;41637;52.364;9.910;2023-04-03T07:52:14;5.30;;;1.10;;
55732;SDS011;41637;52.364;9.910;2023-04-03T07:54:41;5.10;;;1.30;;
55732;SDS011;41637;52.364;9.910;2023-04-03T07:57:08;5.20;;;1.00;;
55732;SDS011;41637;52.364;9.910;2023-04-03T07:59:34;4.70;;;1.20;;
55732;SDS011;41637;52.364;9.910;2023-04-03T08:02:01;4.80;;;1.00;;
55732;SDS011;41637;52.364;9.910;2023-04-03T08:04:30;3.80;;;1.00;;
55732;SDS011;41637;52.364;9.910;2023-04-03T08:06:57;3.80;;;0.90;;
55732;SDS011;41637;52.364;9.910;2023-04-03T08:09:24;4.30;;;1.00;;
55732;SDS011;41637;52.364;9.910;2023-04-03T08:11:51;3.30;;;1.00;;
55732;SDS011;41637;52.364;9.910;2023-04-03T08:14:19;4.40;;;1.10;;
55732;SDS011;41637;52.364;9.910;2023-04-03T08:16:47;5.00;;;1.30;;
55732;SDS011;41637;52.364;9.910;2023-04-03T08:19:15;5.90;;;1.40;;
55732;SDS011;41637;52.364;9.910;2023-04-03T08:21:51;6.00;;;1.30;;
55732;SDS011;41637;52.364;9.910;2023-04-03T08:24:18;3.00;;;1.00;;
55732;SDS011;41637;52.364;9.910;2023-04-03T08:26:45;2.90;;;0.90;;
55732;SDS011;41637;52.364;9.910;2023-04-03T08:29:12;4.30;;;1.20;;
55732;SDS011;41637;52.364;9.910;2023-04-03T08:31:39;5.60;;;1.30;;
55732;SDS011;41637;52.364;9.910;2023-04-03T08:34:06;3.70;;;1.10;;
55732;SDS011;41637;52.364;9.910;2023-04-03T08:36:32;6.00;;;1.40;;
55732;SDS011;41637;52.364;9.910;2023-04-03T08:38:59;4.30;;;1.40;;
55732;SDS011;41637;52.364;9.910;2023-04-03T08:44:15;4.00;;;1.10;;
55732;SDS011;41637;52.364;9.910;2023-04-03T08:49:42;5.10;;;1.20;;
55732;SDS011;41637;52.364;9.910;2023-04-03T08:52:15;3.70;;;1.20;;
55732;SDS011;41637;52.364;9.910;2023-04-03T08:54:50;3.20;;;1.20;;
55732;SDS011;41637;52.364;9.910;2023-04-03T08:57:29;5.20;;;1.20;;
55732;SDS011;41637;52.364;9.910;2023-04-03T09:00:00;5.10;;;1.10;;
55732;SDS011;41637;52.364;9.910;2023-04-03T09:05:12;4.00;;;1.30;;
55732;SDS011;41637;52.364;9.910;2023-04-03T09:07:55;3.10;;;0.90;;
55732;SDS011;41637;52.364;9.910;2023-04-03T09:10:38;3.60;;;1.10;;
55732;SDS011;41637;52.364;9.910;2023-04-03T09:16:25;3.40;;;0.80;;
55732;SDS011;41637;52.364;9.910;2023-04-03T09:19:20;2.40;;;0.90;;
55732;SDS011;41637;52.364;9.910;2023-04-03T09:22:13;3.30;;;1.00;;
55732;SDS011;41637;52.364;9.910;2023-04-03T09:24:43;3.20;;;0.80;;
55732;SDS011;41637;52.364;9.910;2023-04-03T09:27:13;2.60;;;1.00;;
55732;SDS011;41637;52.364;9.910;2023-04-03T09:29:40;3.10;;;0.90;;
55732;SDS011;41637;52.364;9.910;2023-04-03T09:32:18;3.20;;;0.70;;
55732;SDS011;41637;52.364;9.910;2023-04-03T09:34:57;3.50;;;0.90;;
55732;SDS011;41637;52.364;9.910;2023-04-03T09:37:47;3.10;;;0.70;;
55732;SDS011;41637;52.364;9.910;2023-04-03T09:40:36;2.60;;;0.70;;
55732;SDS011;41637;52.364;9.910;2023-04-03T09:45:44;2.70;;;0.80;;
55732;SDS011;41637;52.364;9.910;2023-04-03T09:53:25;3.40;;;0.90;;
55732;SDS011;41637;52.364;9.910;2023-04-03T09:55:55;2.80;;;0.80;;
55732;SDS011;41637;52.364;9.910;2023-04-03T09:58:23;1.90;;;0.70;;
55732;SDS011;41637;52.364;9.910;2023-04-03T10:01:02;3.90;;;1.00;;
55732;SDS011;41637;52.364;9.910;2023-04-03T10:03:30;3.50;;;0.90;;
55732;SDS011;41637;52.364;9.910;2023-04-03T10:05:59;3.10;;;0.80;;
55732;SDS011;41637;52.364;9.910;2023-04-03T10:08:34;2.10;;;0.90;;
55732;SDS011;41637;52.364;9.910;2023-04-03T10:11:05;3.20;;;0.90;;
55732;SDS011;41637;52.364;9.910;2023-04-03T10:13:32;1.80;;;0.80;;
55732;SDS011;41637;52.364;9.910;2023-04-03T10:16:12;2.90;;;0.80;;
55732;SDS011;41637;52.364;9.910;2023-04-03T10:33:27;3.30;;;0.90;;
55732;SDS011;41637;52.364;9.910;2023-04-03T10:35:59;2.50;;;0.70;;
55732;SDS011;41637;52.364;9.910;2023-04-03T10:39:08;3.40;;;0.90;;
55732;SDS011;41637;52.364;9.910;2023-04-03T10:41:47;2.70;;;0.70;;
55732;SDS011;41637;52.364;9.910;2023-04-03T10:44:52;2.20;;;0.50;;
55732;SDS011;41637;52.364;9.910;2023-04-03T10:55:36;3.60;;;0.80;;
55732;SDS011;41637;52.364;9.910;2023-04-03T10:58:14;2.50;;;0.80;;
55732;SDS011;41637;52.364;9.910;2023-04-03T11:00:50;2.10;;;0.70;;
55732;SDS011;41637;52.364;9.910;2023-04-03T11:05:55;2.20;;;0.60;;
55732;SDS011;41637;52.364;9.910;2023-04-03T11:08:28;2.70;;;1.00;;
55732;SDS011;41637;52.364;9.910;2023-04-03T11:11:02;2.90;;;0.80;;
55732;SDS011;41637;52.364;9.910;2023-04-03T11:13:43;2.70;;;0.70;;
55732;SDS011;41637;52.364;9.910;2023-04-03T11:16:17;2.70;;;0.80;;
55732;SDS011;41637;52.364;9.910;2023-04-03T11:18:50;3.20;;;0.90;;
55732;SDS011;41637;52.364;9.910;2023-04-03T11:24:05;3.10;;;0.70;;
55732;SDS011;41637;52.364;9.910;2023-04-03T11:26:40;2.60;;;0.70;;
55732;SDS011;41637;52.364;9.910;2023-04-03T11:29:09;2.90;;;0.80;;
55732;SDS011;41637;52.364;9.910;2023-04-03T11:34:49;2.40;;;0.70;;
55732;SDS011;41637;52.364;9.910;2023-04-03T11:37:43;3.20;;;0.90;;
55732;SDS011;41637;52.364;9.910;2023-04-03T11:42:46;2.90;;;0.80;;
55732;SDS011;41637;52.364;9.910;2023-04-03T11:48:03;4.60;;;1.00;;
55732;SDS011;41637;52.364;9.910;2023-04-03T11:53:39;3.20;;;0.80;;
55732;SDS011;41637;52.364;9.910;2023-04-03T12:01:55;3.30;;;0.90;;
55732;SDS011;41637;52.364;9.910;2023-04-03T12:04:26;2.90;;;0.80;;
55732;SDS011;41637;52.364;9.910;2023-04-03T12:07:08;3.40;;;0.80;;
55732;SDS011;41637;52.364;9.910;2023-04-03T12:15:21;3.40;;;0.90;;
55732;SDS011;41637;52.364;9.910;2023-04-03T12:17:49;1.60;;;0.60;;
55732;SDS011;41637;52.364;9.910;2023-04-03T12:26:03;3.40;;;0.90;;
55732;SDS011;41637;52.364;9.910;2023-04-03T12:28:35;2.10;;;0.70;;
55732;SDS011;41637;52.364;9.910;2023-04-03T12:31:05;1.60;;;0.60;;
55732;SDS011;41637;52.364;9.910;2023-04-03T12:36:36;3.00;;;0.80;;
55732;SDS011;41637;52.364;9.910;2023-04-03T12:39:22;2.30;;;0.70;;
55732;SDS011;41637;52.364;9.910;2023-04-03T12:42:31;3.00;;;0.80;;
55732;SDS011;41637;52.364;9.910;2023-04-03T12:45:20;3.00;;;0.70;;
55732;SDS011;41637;52.364;9.910;2023-04-03T12:47:50;2.30;;;0.60;;
55732;SDS011;41637;52.364;9.910;2023-04-03T12:52:57;2.70;;;0.60;;
55732;SDS011;41637;52.364;9.910;2023-04-03T12:55:27;3.30;;;0.80;;
55732;SDS011;41637;52.364;9.910;2023-04-03T12:57:54;3.00;;;0.80;;
55732;SDS011;41637;52.364;9.910;2023-04-03T13:00:31;2.80;;;0.80;;
55732;SDS011;41637;52.364;9.910;2023-04-03T13:03:01;4.20;;;1.30;;
55732;SDS011;41637;52.364;9.910;2023-04-03T13:05:30;3.90;;;1.40;;
55732;SDS011;41637;52.364;9.910;2023-04-03T13:08:03;3.10;;;0.90;;
55732;SDS011;41637;52.364;9.910;2023-04-03T13:10:42;2.30;;;0.70;;
55732;SDS011;41637;52.364;9.910;2023-04-03T13:13:19;2.40;;;0.80;;
55732;SDS011;41637;52.364;9.910;2023-04-03T13:15:46;2.40;;;0.80;;
55732;SDS011;41637;52.364;9.910;2023-04-03T13:18:22;3.10;;;0.90;;
55732;SDS011;41637;52.364;9.910;2023-04-03T13:23:46;2.00;;;0.70;;
55732;SDS011;41637;52.364;9.910;2023-04-03T13:26:23;2.50;;;0.90;;
55732;SDS011;41637;52.364;9.910;2023-04-03T13:28:52;1.90;;;0.70;;
55732;SDS011;41637;52.364;9.910;2023-04-03T13:31:26;2.00;;;0.80;;
55732;SDS011;41637;52.364;9.910;2023-04-03T13:34:17;2.10;;;0.70;;
55732;SDS011;41637;52.364;9.910;2023-04-03T13:36:46;3.20;;;0.70;;
55732;SDS011;41637;52.364;9.910;2023-04-03T13:39:27;2.70;;;0.80;;
55732;SDS011;41637;52.364;9.910;2023-04-03T13:41:58;2.00;;;0.70;;
55732;SDS011;41637;52.364;9.910;2023-04-03T13:44:29;2.20;;;0.80;;
55732;SDS011;41637;52.364;9.910;2023-04-03T13:47:14;1.50;;;0.70;;
55732;SDS011;41637;52.364;9.910;2023-04-03T13:49:42;2.20;;;0.90;;
55732;SDS011;41637;52.364;9.910;2023-04-03T13:52:45;1.90;;;1.00;;
55732;SDS011;41637;52.364;9.910;2023-04-03T13:55:16;2.80;;;0.80;;
55732;SDS011;41637;52.364;9.910;2023-04-03T14:00:39;2.70;;;0.80;;
55732;SDS011;41637;52.364;9.910;2023-04-03T14:05:45;3.40;;;0.90;;
55732;SDS011;41637;52.364;9.910;2023-04-03T14:08:11;3.10;;;0.70;;
55732;SDS011;41637;52.364;9.910;2023-04-03T14:10:38;2.30;;;1.00;;
55732;SDS011;41637;52.364;9.910;2023-04-03T14:13:05;2.60;;;0.70;;
55732;SDS011;41637;52.364;9.910;2023-04-03T14:15:32;2.60;;;0.70;;
55732;SDS011;41637;52.364;9.910;2023-04-03T14:17:59;2.90;;;0.70;;
55732;SDS011;41637;52.364;9.910;2023-04-03T14:20:31;2.40;;;0.80;;
55732;SDS011;41637;52.364;9.910;2023-04-03T14:22:58;2.80;;;0.90;;
55732;SDS011;41637;52.364;9.910;2023-04-03T14:25:24;1.70;;;0.70;;
55732;SDS011;41637;52.364;9.910;2023-04-03T14:27:52;2.80;;;1.00;;
55732;SDS011;41637;52.364;9.910;2023-04-03T14:30:27;2.10;;;0.70;;
55732;SDS011;41637;52.364;9.910;2023-04-03T14:32:59;2.60;;;1.10;;
55732;SDS011;41637;52.364;9.910;2023-04-03T14:35:26;2.20;;;1.00;;
55732;SDS011;41637;52.364;9.910;2023-04-03T14:37:53;1.80;;;0.60;;
55732;SDS011;41637;52.364;9.910;2023-04-03T14:40:23;2.50;;;0.70;;
55732;SDS011;41637;52.364;9.910;2023-04-03T14:42:52;2.30;;;0.80;;
55732;SDS011;41637;52.364;9.910;2023-04-03T14:45:22;1.80;;;0.90;;
55732;SDS011;41637;52.364;9.910;2023-04-03T14:47:53;2.60;;;0.90;;
55732;SDS011;41637;52.364;9.910;2023-04-03T14:50:25;3.20;;;0.90;;
55732;SDS011;41637;52.364;9.910;2023-04-03T14:52:54;2.40;;;0.80;;
55732;SDS011;41637;52.364;9.910;2023-04-03T14:55:23;3.30;;;0.80;;
55732;SDS011;41637;52.364;9.910;2023-04-03T14:57:50;2.10;;;0.70;;
55732;SDS011;41637;52.364;9.910;2023-04-03T15:00:19;3.50;;;0.90;;
55732;SDS011;41637;52.364;9.910;2023-04-03T15:02:47;2.80;;;0.90;;
55732;SDS011;41637;52.364;9.910;2023-04-03T15:05:14;3.30;;;1.00;;
55732;SDS011;41637;52.364;9.910;2023-04-03T15:07:43;1.90;;;0.70;;
55732;SDS011;41637;52.364;9.910;2023-04-03T15:10:22;2.70;;;0.80;;
55732;SDS011;41637;52.364;9.910;2023-04-03T15:12:51;3.50;;;0.80;;
55732;SDS011;41637;52.364;9.910;2023-04-03T15:15:19;2.20;;;0.90;;
55732;SDS011;41637;52.364;9.910;2023-04-03T15:17:47;2.20;;;0.80;;
55732;SDS011;41637;52.364;9.910;2023-04-03T15:20:25;2.90;;;1.00;;
55732;SDS011;41637;52.364;9.910;2023-04-03T15:22:53;3.50;;;1.00;;
55732;SDS011;41637;52.364;9.910;2023-04-03T15:25:22;2.20;;;0.70;;
55732;SDS011;41637;52.364;9.910;2023-04-03T15:27:52;2.00;;;0.90;;
55732;SDS011;41637;52.364;9.910;2023-04-03T15:30:20;2.00;;;0.60;;
55732;SDS011;41637;52.364;9.910;2023-04-03T15:32:48;2.30;;;0.90;;
55732;SDS011;41637;52.364;9.910;2023-04-03T15:35:15;1.80;;;0.90;;
55732;SDS011;41637;52.364;9.910;2023-04-03T15:37:41;3.10;;;0.70;;
55732;SDS011;41637;52.364;9.910;2023-04-03T15:40:08;2.60;;;0.80;;
55732;SDS011;41637;52.364;9.910;2023-04-03T15:42:35;2.40;;;1.00;;
55732;SDS011;41637;52.364;9.910;2023-04-03T15:45:01;2.30;;;1.00;;
55732;SDS011;41637;52.364;9.910;2023-04-03T15:47:28;2.20;;;1.10;;
55732;SDS011;41637;52.364;9.910;2023-04-03T15:49:55;3.60;;;1.00;;
55732;SDS011;41637;52.364;9.910;2023-04-03T15:52:22;3.30;;;1.30;;
55732;SDS011;41637;52.364;9.910;2023-04-03T15:54:48;3.20;;;1.10;;
55732;SDS011;41637;52.364;9.910;2023-04-03T15:57:15;2.90;;;1.00;;
55732;SDS011;41637;52.364;9.910;2023-04-03T15:59:42;2.90;;;1.00;;
55732;SDS011;41637;52.364;9.910;2023-04-03T16:02:08;2.60;;;1.00;;
55732;SDS011;41637;52.364;9.910;2023-04-03T16:04:39;3.80;;;1.00;;
55732;SDS011;41637;52.364;9.910;2023-04-03T16:07:06;2.80;;;0.80;;
55732;SDS011;41637;52.364;9.910;2023-04-03T16:09:33;3.30;;;0.90;;
55732;SDS011;41637;52.364;9.910;2023-04-03T16:12:00;3.70;;;1.00;;
55732;SDS011;41637;52.364;9.910;2023-04-03T16:14:28;2.20;;;0.90;;
55732;SDS011;41637;52.364;9.910;2023-04-03T16:16:56;2.90;;;0.80;;
55732;SDS011;41637;52.364;9.910;2023-04-03T16:19:25;2.00;;;0.90;;
55732;SDS011;41637;52.364;9.910;2023-04-03T16:21:52;3.40;;;1.00;;
55732;SDS011;41637;52.364;9.910;2023-04-03T16:24:20;2.80;;;0.80;;
55732;SDS011;41637;52.364;9.910;2023-04-03T16:26:47;2.90;;;1.00;;
55732;SDS011;41637;52.364;9.910;2023-04-03T16:29:13;2.50;;;0.90;;
55732;SDS011;41637;52.364;9.910;2023-04-03T16:31:40;2.20;;;0.90;;
55732;SDS011;41637;52.364;9.910;2023-04-03T16:34:07;3.50;;;0.90;;
55732;SDS011;41637;52.364;9.910;2023-04-03T16:36:33;2.80;;;1.00;;
55732;SDS011;41637;52.364;9.910;2023-04-03T16:39:00;2.50;;;1.10;;
55732;SDS011;41637;52.364;9.910;2023-04-03T16:41:26;2.50;;;0.90;;
55732;SDS011;41637;52.364;9.910;2023-04-03T16:43:53;3.00;;;1.20;;